createdAt,value
2017-05-02T00:00:27.844Z,12
2017-05-02T00:01:40.636Z,12
2017-05-02T00:02:53.431Z,12
2017-05-02T00:04:06.235Z,12
2017-05-02T00:05:19.033Z,12
2017-05-02T00:06:31.825Z,12
2017-05-02T00:07:44.144Z,12
2017-05-02T00:09:11.017Z,12
2017-05-02T00:10:23.822Z,12
2017-05-02T00:11:36.625Z,12
2017-05-02T00:12:49.419Z,12
2017-05-02T00:14:02.223Z,12
2017-05-02T00:15:15.023Z,4
2017-05-02T00:16:27.816Z,12
2017-05-02T00:17:40.128Z,12
2017-05-02T00:18:52.484Z,12
2017-05-02T00:20:05.284Z,12
2017-05-02T00:21:17.595Z,12
2017-05-02T00:22:30.384Z,4
2017-05-02T00:23:42.696Z,12
2017-05-02T00:24:55.742Z,12
2017-05-02T00:26:08.541Z,12
2017-05-02T00:27:21.331Z,16
2017-05-02T00:28:34.130Z,12
2017-05-02T00:29:46.926Z,12
2017-05-02T00:30:59.977Z,4
2017-05-02T00:32:12.765Z,12
2017-05-02T00:33:25.555Z,12
2017-05-02T00:34:38.389Z,4
2017-05-02T00:35:51.439Z,12
2017-05-02T00:37:04.234Z,12
2017-05-02T00:38:16.551Z,12
2017-05-02T00:39:29.352Z,12
2017-05-02T00:40:41.666Z,8
2017-05-02T00:41:54.712Z,12
2017-05-02T00:43:07.508Z,8
2017-05-02T00:44:19.820Z,12
2017-05-02T00:45:32.616Z,12
2017-05-02T00:46:45.413Z,12
2017-05-02T00:47:57.725Z,8
2017-05-02T00:49:10.519Z,16
2017-05-02T00:50:23.310Z,12
2017-05-02T00:51:36.107Z,12
2017-05-02T00:52:48.909Z,12
2017-05-02T00:54:01.708Z,16
2017-05-02T00:55:14.021Z,12
2017-05-02T00:56:26.819Z,12
2017-05-02T00:57:53.686Z,4
2017-05-02T00:59:06.521Z,12
2017-05-02T01:00:19.318Z,12
2017-05-02T01:01:32.114Z,12
2017-05-02T01:02:45.158Z,4
2017-05-02T01:03:57.471Z,12
2017-05-02T01:05:10.273Z,12
2017-05-02T01:06:23.068Z,12
2017-05-02T01:07:34.896Z,12
2017-05-02T01:08:47.694Z,8
2017-05-02T01:10:00.500Z,12
2017-05-02T01:11:13.306Z,8
2017-05-02T01:12:26.104Z,12
2017-05-02T01:13:39.147Z,12
2017-05-02T01:14:51.456Z,12
2017-05-02T01:16:04.257Z,12
2017-05-02T01:17:17.109Z,12
2017-05-02T01:18:29.906Z,12
2017-05-02T01:19:42.472Z,12
2017-05-02T01:20:55.270Z,4
2017-05-02T01:22:08.073Z,12
2017-05-02T01:23:20.397Z,12
2017-05-02T01:24:33.215Z,12
2017-05-02T01:25:45.058Z,12
2017-05-02T01:26:57.858Z,12
2017-05-02T01:28:10.657Z,12
2017-05-02T01:29:23.465Z,4
2017-05-02T01:30:36.266Z,12
2017-05-02T01:31:49.064Z,12
2017-05-02T01:33:01.377Z,8
2017-05-02T01:34:14.185Z,4
2017-05-02T01:35:27.239Z,12
2017-05-02T01:36:40.037Z,12
2017-05-02T01:37:52.847Z,12
2017-05-02T01:39:05.653Z,12
2017-05-02T01:40:17.974Z,12
2017-05-02T01:41:31.069Z,12
2017-05-02T01:42:43.892Z,12
2017-05-02T01:43:56.227Z,12
2017-05-02T01:45:08.533Z,4
2017-05-02T01:46:20.842Z,12
2017-05-02T01:47:33.640Z,12
2017-05-02T01:48:46.435Z,12
2017-05-02T01:49:59.232Z,12
2017-05-02T01:51:11.547Z,4
2017-05-02T01:52:24.639Z,4
2017-05-02T01:53:37.440Z,12
2017-05-02T01:54:50.240Z,12
2017-05-02T01:56:03.064Z,12
2017-05-02T01:57:15.878Z,12
2017-05-02T01:58:28.681Z,12
2017-05-02T01:59:41.493Z,12
2017-05-02T02:00:54.298Z,16
2017-05-02T02:02:07.118Z,16
2017-05-02T02:03:19.684Z,12
2017-05-02T02:04:32.016Z,12
2017-05-02T02:05:44.817Z,12
2017-05-02T02:06:57.618Z,12
2017-05-02T02:08:10.430Z,12
2017-05-02T02:09:23.231Z,12
2017-05-02T02:10:36.033Z,12
2017-05-02T02:11:48.826Z,12
2017-05-02T02:13:01.619Z,12
2017-05-02T02:14:14.675Z,12
2017-05-02T02:15:27.466Z,12
2017-05-02T02:16:40.258Z,12
2017-05-02T02:17:53.061Z,12
2017-05-02T02:19:05.649Z,12
2017-05-02T02:20:18.005Z,16
2017-05-02T02:21:30.813Z,12
2017-05-02T02:22:43.611Z,12
2017-05-02T02:23:56.401Z,12
2017-05-02T02:25:09.444Z,12
2017-05-02T02:26:21.758Z,12
2017-05-02T02:27:34.556Z,4
2017-05-02T02:28:47.348Z,4
2017-05-02T02:30:00.393Z,16
2017-05-02T02:31:13.291Z,12
2017-05-02T02:32:25.111Z,12
2017-05-02T02:33:37.424Z,8
2017-05-02T02:34:50.218Z,12
2017-05-02T02:36:03.012Z,4
2017-05-02T02:37:15.317Z,16
2017-05-02T02:38:28.126Z,12
2017-05-02T02:39:40.922Z,12
2017-05-02T02:40:54.010Z,4
2017-05-02T02:42:06.799Z,4
2017-05-02T02:43:19.588Z,16
2017-05-02T02:44:32.405Z,16
2017-05-02T02:45:45.205Z,16
2017-05-02T02:46:58.246Z,12
2017-05-02T02:48:11.040Z,12
2017-05-02T02:49:23.380Z,12
2017-05-02T02:50:36.163Z,12
2017-05-02T02:51:48.764Z,12
2017-05-02T02:53:01.552Z,8
2017-05-02T02:54:14.338Z,12
2017-05-02T02:55:27.140Z,8
2017-05-02T02:56:39.931Z,4
2017-05-02T02:57:52.536Z,12
2017-05-02T02:59:05.336Z,12
2017-05-02T03:00:18.130Z,12
2017-05-02T03:01:30.918Z,12
2017-05-02T03:02:43.707Z,8
2017-05-02T03:03:56.027Z,12
2017-05-02T03:05:08.817Z,12
2017-05-02T03:06:21.125Z,12
2017-05-02T03:07:33.919Z,12
2017-05-02T03:08:46.971Z,12
2017-05-02T03:09:59.767Z,12
2017-05-02T03:11:12.087Z,4
2017-05-02T03:12:24.919Z,4
2017-05-02T03:13:37.958Z,16
2017-05-02T03:14:50.751Z,12
2017-05-02T03:16:03.532Z,8
2017-05-02T03:17:16.317Z,12
2017-05-02T03:18:29.115Z,16
2017-05-02T03:19:41.672Z,12
2017-05-02T03:20:54.452Z,12
2017-05-02T03:22:07.238Z,12
2017-05-02T03:23:19.062Z,12
2017-05-02T03:24:31.619Z,4
2017-05-02T03:25:44.403Z,12
2017-05-02T03:26:56.738Z,12
2017-05-02T03:28:09.520Z,12
2017-05-02T03:29:22.311Z,4
2017-05-02T03:30:35.343Z,12
2017-05-02T03:31:47.689Z,16
2017-05-02T03:33:00.476Z,12
2017-05-02T03:34:12.784Z,12
2017-05-02T03:35:25.573Z,12
2017-05-02T03:36:38.358Z,12
2017-05-02T03:37:51.146Z,4
2017-05-02T03:39:03.930Z,12
2017-05-02T03:40:16.716Z,12
2017-05-02T03:41:29.495Z,12
2017-05-02T03:42:42.281Z,4
2017-05-02T03:43:54.586Z,12
2017-05-02T03:45:07.368Z,12
2017-05-02T03:46:20.157Z,16
2017-05-02T03:47:32.946Z,12
2017-05-02T03:48:45.749Z,12
2017-05-02T03:49:58.059Z,12
2017-05-02T03:51:10.839Z,12
2017-05-02T03:52:23.619Z,12
2017-05-02T03:53:35.942Z,4
2017-05-02T03:54:48.249Z,4
2017-05-02T03:56:01.032Z,12
2017-05-02T03:57:13.584Z,12
2017-05-02T03:58:26.367Z,12
2017-05-02T03:59:39.150Z,12
2017-05-02T04:00:51.945Z,8
2017-05-02T04:02:04.769Z,12
2017-05-02T04:03:17.323Z,12
2017-05-02T04:04:30.108Z,8
2017-05-02T04:05:42.892Z,12
2017-05-02T04:06:55.674Z,12
2017-05-02T04:08:08.451Z,12
2017-05-02T04:09:20.273Z,12
2017-05-02T04:10:33.062Z,16
2017-05-02T04:11:45.849Z,12
2017-05-02T04:12:58.635Z,12
2017-05-02T04:14:11.420Z,4
2017-05-02T04:15:24.222Z,4
2017-05-02T04:16:37.014Z,12
2017-05-02T04:17:49.795Z,16
2017-05-02T04:19:02.577Z,16
2017-05-02T04:20:14.873Z,12
2017-05-02T04:21:27.186Z,12
2017-05-02T04:22:40.000Z,4
2017-05-02T04:23:52.784Z,4
2017-05-02T04:25:05.573Z,16
2017-05-02T04:26:17.876Z,12
2017-05-02T04:27:30.656Z,12
2017-05-02T04:28:43.438Z,12
2017-05-02T04:29:56.229Z,12
2017-05-02T04:31:09.020Z,12
2017-05-02T04:32:21.322Z,12
2017-05-02T04:33:34.105Z,12
2017-05-02T04:34:46.893Z,12
2017-05-02T04:35:59.491Z,12
2017-05-02T04:37:12.276Z,12
2017-05-02T04:38:24.093Z,12
2017-05-02T04:39:36.878Z,12
2017-05-02T04:40:49.665Z,12
2017-05-02T04:42:02.446Z,12
2017-05-02T04:43:15.230Z,12
2017-05-02T04:44:28.025Z,12
2017-05-02T04:45:40.809Z,12
2017-05-02T04:46:53.104Z,12
2017-05-02T04:48:05.902Z,12
2017-05-02T04:49:18.686Z,12
2017-05-02T04:50:31.473Z,12
2017-05-02T04:51:44.024Z,12
2017-05-02T04:52:56.810Z,8
2017-05-02T04:54:09.112Z,12
2017-05-02T04:55:21.417Z,8
2017-05-02T04:56:34.195Z,4
2017-05-02T04:57:46.981Z,16
2017-05-02T04:58:59.290Z,16
2017-05-02T05:00:11.594Z,12
2017-05-02T05:01:24.377Z,8
2017-05-02T05:02:37.411Z,12
2017-05-02T05:03:50.208Z,12
2017-05-02T05:05:02.990Z,12
2017-05-02T05:06:15.298Z,12
2017-05-02T05:07:28.088Z,12
2017-05-02T05:08:40.872Z,12
2017-05-02T05:09:53.654Z,12
2017-05-02T05:11:06.435Z,8
2017-05-02T05:12:19.223Z,12
2017-05-02T05:13:32.312Z,12
2017-05-02T05:14:45.097Z,12
2017-05-02T05:15:57.394Z,8
2017-05-02T05:17:10.176Z,12
2017-05-02T05:18:22.965Z,12
2017-05-02T05:19:36.002Z,12
2017-05-02T05:20:48.786Z,4
2017-05-02T05:22:01.571Z,4
2017-05-02T05:23:14.354Z,4
2017-05-02T05:24:26.905Z,12
2017-05-02T05:25:39.690Z,12
2017-05-02T05:26:51.989Z,12
2017-05-02T05:28:04.774Z,12
2017-05-02T05:29:17.559Z,12
2017-05-02T05:30:30.639Z,12
2017-05-02T05:31:43.425Z,4
2017-05-02T05:32:55.725Z,4
2017-05-02T05:34:08.507Z,12
2017-05-02T05:35:21.294Z,12
2017-05-02T05:36:34.076Z,4
2017-05-02T05:37:46.867Z,4
2017-05-02T05:38:59.652Z,4
2017-05-02T05:40:11.956Z,12
2017-05-02T05:41:38.807Z,8
2017-05-02T05:42:51.585Z,12
2017-05-02T05:44:04.370Z,12
2017-05-02T05:45:16.191Z,12
2017-05-02T05:46:28.974Z,12
2017-05-02T05:47:41.767Z,12
2017-05-02T05:48:54.549Z,12
2017-05-02T05:50:07.330Z,12
2017-05-02T05:51:19.173Z,12
2017-05-02T05:52:31.479Z,12
2017-05-02T05:53:44.261Z,12
2017-05-02T05:54:57.042Z,12
2017-05-02T05:56:09.367Z,12
2017-05-02T05:57:22.156Z,4
2017-05-02T05:58:34.940Z,4
2017-05-02T05:59:47.254Z,4
2017-05-02T06:00:59.555Z,12
2017-05-02T06:02:12.633Z,12
2017-05-02T06:03:25.415Z,12
2017-05-02T06:04:38.194Z,12
2017-05-02T06:05:50.974Z,12
2017-05-02T06:07:03.750Z,12
2017-05-02T06:08:16.053Z,12
2017-05-02T06:09:28.838Z,4
2017-05-02T06:10:41.623Z,4
2017-05-02T06:11:54.402Z,4
2017-05-02T06:13:07.187Z,16
2017-05-02T06:14:19.986Z,12
2017-05-02T06:15:31.805Z,12
2017-05-02T06:16:44.587Z,12
2017-05-02T06:17:57.371Z,12
2017-05-02T06:19:10.162Z,12
2017-05-02T06:20:22.463Z,12
2017-05-02T06:21:34.767Z,4
2017-05-02T06:22:47.546Z,12
2017-05-02T06:24:00.628Z,12
2017-05-02T06:25:13.408Z,12
2017-05-02T06:26:26.194Z,4
2017-05-02T06:27:38.974Z,4
2017-05-02T06:28:51.757Z,12
2017-05-02T06:30:04.544Z,8
2017-05-02T06:31:17.329Z,12
2017-05-02T06:32:30.118Z,4
2017-05-02T06:33:42.417Z,4
2017-05-02T06:34:55.204Z,16
2017-05-02T06:36:07.985Z,12
2017-05-02T06:37:20.281Z,12
2017-05-02T06:38:31.619Z,12
2017-05-02T06:39:44.402Z,12
2017-05-02T06:40:56.947Z,4
2017-05-02T06:42:09.252Z,4
2017-05-02T06:43:21.551Z,12
2017-05-02T06:44:34.372Z,16
2017-05-02T06:45:47.156Z,16
2017-05-02T06:46:58.971Z,12
2017-05-02T06:48:11.275Z,12
2017-05-02T06:49:23.589Z,4
2017-05-02T06:50:36.374Z,12
2017-05-02T06:51:48.925Z,12
2017-05-02T06:53:01.713Z,12
2017-05-02T06:54:13.530Z,12
2017-05-02T06:55:26.309Z,12
2017-05-02T06:56:38.607Z,16
2017-05-02T06:57:51.388Z,16
2017-05-02T06:59:04.180Z,12
2017-05-02T07:00:16.965Z,4
2017-05-02T07:01:29.270Z,12
2017-05-02T07:02:41.574Z,12
2017-05-02T07:03:53.876Z,12
2017-05-02T07:05:06.658Z,12
2017-05-02T07:06:19.440Z,12
2017-05-02T07:07:32.523Z,12
2017-05-02T07:08:44.819Z,12
2017-05-02T07:09:57.609Z,12
2017-05-02T07:11:09.914Z,12
2017-05-02T07:12:22.706Z,12
2017-05-02T07:13:35.044Z,12
2017-05-02T07:14:47.827Z,12
2017-05-02T07:16:00.126Z,12
2017-05-02T07:17:12.917Z,12
2017-05-02T07:18:25.950Z,12
2017-05-02T07:19:38.748Z,12
2017-05-02T07:20:51.595Z,12
2017-05-02T07:22:04.394Z,12
2017-05-02T07:23:17.186Z,12
2017-05-02T07:24:29.980Z,12
2017-05-02T07:25:42.764Z,12
2017-05-02T07:26:55.554Z,12
2017-05-02T07:28:08.346Z,4
2017-05-02T07:29:21.394Z,12
2017-05-02T07:30:34.183Z,12
2017-05-02T07:31:46.978Z,12
2017-05-02T07:32:59.770Z,4
2017-05-02T07:34:12.567Z,4
2017-05-02T07:35:24.878Z,12
2017-05-02T07:36:37.675Z,12
2017-05-02T07:37:50.471Z,12
2017-05-02T07:39:02.783Z,4
2017-05-02T07:40:14.608Z,4
2017-05-02T07:41:27.410Z,4
2017-05-02T07:42:40.217Z,12
2017-05-02T07:43:52.535Z,8
2017-05-02T07:45:05.327Z,12
2017-05-02T07:46:18.406Z,12
2017-05-02T07:47:31.199Z,12
2017-05-02T07:48:44.008Z,12
2017-05-02T07:49:56.803Z,12
2017-05-02T07:51:09.894Z,4
2017-05-02T07:52:22.687Z,12
2017-05-02T07:53:35.479Z,16
2017-05-02T07:54:48.264Z,16
2017-05-02T07:56:01.050Z,12
2017-05-02T07:57:13.654Z,12
2017-05-02T07:58:25.487Z,12
2017-05-02T07:59:37.788Z,12
2017-05-02T08:00:50.576Z,4
2017-05-02T08:02:03.618Z,16
2017-05-02T08:03:16.408Z,16
2017-05-02T08:04:29.219Z,12
2017-05-02T08:05:42.009Z,12
2017-05-02T08:06:54.793Z,12
2017-05-02T08:08:06.627Z,12
2017-05-02T08:09:18.931Z,16
2017-05-02T08:10:31.237Z,12
2017-05-02T08:11:44.020Z,12
2017-05-02T08:12:56.813Z,8
2017-05-02T08:14:09.609Z,4
2017-05-02T08:15:21.910Z,4
2017-05-02T08:16:34.220Z,12
2017-05-02T08:17:46.539Z,12
2017-05-02T08:18:59.331Z,12
2017-05-02T08:20:11.641Z,12
2017-05-02T08:21:24.438Z,12
2017-05-02T08:22:37.233Z,12
2017-05-02T08:23:50.030Z,12
2017-05-02T08:25:02.822Z,12
2017-05-02T08:26:15.611Z,4
2017-05-02T08:27:28.398Z,12
2017-05-02T08:28:41.199Z,16
2017-05-02T08:29:54.243Z,12
2017-05-02T08:31:06.557Z,12
2017-05-02T08:32:18.384Z,12
2017-05-02T08:33:31.184Z,12
2017-05-02T08:34:44.228Z,12
2017-05-02T08:35:56.536Z,12
2017-05-02T08:37:09.326Z,12
2017-05-02T08:38:21.642Z,8
2017-05-02T08:39:34.438Z,4
2017-05-02T08:40:47.243Z,12
2017-05-02T08:42:00.037Z,16
2017-05-02T08:43:12.823Z,12
2017-05-02T08:44:25.621Z,4
2017-05-02T08:45:38.185Z,12
2017-05-02T08:46:50.973Z,12
2017-05-02T08:48:03.771Z,12
2017-05-02T08:49:16.572Z,12
2017-05-02T08:50:28.880Z,8
2017-05-02T08:51:41.920Z,4
2017-05-02T08:52:54.711Z,4
2017-05-02T08:54:07.502Z,12
2017-05-02T08:55:20.301Z,12
2017-05-02T08:56:33.085Z,12
2017-05-02T08:57:45.874Z,12
2017-05-02T08:58:58.663Z,12
2017-05-02T09:00:11.458Z,12
2017-05-02T09:01:24.264Z,12
2017-05-02T09:02:37.058Z,12
2017-05-02T09:03:49.857Z,12
2017-05-02T09:05:02.651Z,12
2017-05-02T09:06:14.961Z,16
2017-05-02T09:07:28.005Z,12
2017-05-02T09:08:40.786Z,12
2017-05-02T09:09:53.566Z,12
2017-05-02T09:11:05.866Z,8
2017-05-02T09:12:17.684Z,12
2017-05-02T09:13:29.991Z,12
2017-05-02T09:14:42.296Z,16
2017-05-02T09:15:54.597Z,16
2017-05-02T09:17:07.380Z,16
2017-05-02T09:18:20.164Z,12
2017-05-02T09:19:32.981Z,8
2017-05-02T09:20:45.763Z,12
2017-05-02T09:21:58.551Z,12
2017-05-02T09:23:11.337Z,16
2017-05-02T09:24:24.137Z,12
2017-05-02T09:25:36.922Z,16
2017-05-02T09:26:49.706Z,16
2017-05-02T09:28:02.487Z,12
2017-05-02T09:29:15.270Z,8
2017-05-02T09:30:28.087Z,8
2017-05-02T09:31:40.382Z,12
2017-05-02T09:32:53.162Z,16
2017-05-02T09:34:05.999Z,12
2017-05-02T09:35:18.299Z,12
2017-05-02T09:36:30.628Z,12
2017-05-02T09:37:42.928Z,12
2017-05-02T09:38:55.232Z,24
2017-05-02T09:40:08.267Z,12
2017-05-02T09:41:20.564Z,12
2017-05-02T09:42:32.868Z,16
2017-05-02T09:43:45.172Z,16
2017-05-02T09:44:57.954Z,16
2017-05-02T09:46:10.506Z,20
2017-05-02T09:47:22.804Z,20
2017-05-02T09:48:35.592Z,20
2017-05-02T09:49:47.416Z,20
2017-05-02T09:51:00.204Z,20
2017-05-02T09:52:12.504Z,24
2017-05-02T09:53:25.298Z,28
2017-05-02T09:54:37.612Z,28
2017-05-02T09:55:50.408Z,28
2017-05-02T09:57:03.017Z,32
2017-05-02T09:58:15.817Z,32
2017-05-02T09:59:28.621Z,36
2017-05-02T10:00:40.925Z,36
2017-05-02T10:01:53.719Z,44
2017-05-02T10:03:06.514Z,44
2017-05-02T10:04:18.816Z,44
2017-05-02T10:05:31.126Z,44
2017-05-02T10:06:43.921Z,48
2017-05-02T10:07:56.973Z,48
2017-05-02T10:09:09.772Z,52
2017-05-02T10:10:22.560Z,52
2017-05-02T10:11:35.355Z,56
2017-05-02T10:12:47.915Z,56
2017-05-02T10:13:59.745Z,64
2017-05-02T10:15:11.579Z,76
2017-05-02T10:16:24.374Z,88
2017-05-02T10:17:36.688Z,104
2017-05-02T10:18:49.252Z,112
2017-05-02T10:20:02.060Z,120
2017-05-02T10:21:13.886Z,124
2017-05-02T10:22:26.200Z,128
2017-05-02T10:23:38.285Z,124
2017-05-02T10:24:51.076Z,120
2017-05-02T10:26:03.868Z,108
2017-05-02T10:27:16.662Z,108
2017-05-02T10:28:28.974Z,104
2017-05-02T10:29:40.804Z,100
2017-05-02T10:30:53.588Z,100
2017-05-02T10:32:04.930Z,96
2017-05-02T10:33:17.723Z,96
2017-05-02T10:34:30.036Z,96
2017-05-02T10:35:41.860Z,100
2017-05-02T10:36:54.656Z,112
2017-05-02T10:38:07.452Z,124
2017-05-02T10:39:20.250Z,140
2017-05-02T10:40:33.050Z,156
2017-05-02T10:41:45.841Z,176
2017-05-02T10:42:58.150Z,184
2017-05-02T10:44:10.941Z,184
2017-05-02T10:45:24.032Z,176
2017-05-02T10:46:36.825Z,172
2017-05-02T10:47:49.618Z,164
2017-05-02T10:49:01.934Z,160
2017-05-02T10:50:14.737Z,164
2017-05-02T10:51:27.545Z,172
2017-05-02T10:52:40.346Z,176
2017-05-02T10:53:53.152Z,184
2017-05-02T10:55:05.493Z,196
2017-05-02T10:56:17.315Z,204
2017-05-02T10:57:29.630Z,208
2017-05-02T10:58:41.956Z,204
2017-05-02T10:59:54.743Z,188
2017-05-02T11:01:07.531Z,172
2017-05-02T11:02:20.315Z,152
2017-05-02T11:03:32.627Z,148
2017-05-02T11:04:45.430Z,140
2017-05-02T11:05:58.234Z,144
2017-05-02T11:07:10.847Z,148
2017-05-02T11:08:23.642Z,152
2017-05-02T11:09:36.446Z,168
2017-05-02T11:10:49.237Z,184
2017-05-02T11:12:02.037Z,188
2017-05-02T11:13:14.840Z,208
2017-05-02T11:14:27.157Z,232
2017-05-02T11:15:39.945Z,248
2017-05-02T11:16:52.737Z,268
2017-05-02T11:18:05.046Z,292
2017-05-02T11:19:17.839Z,304
2017-05-02T11:20:30.635Z,328
2017-05-02T11:21:43.434Z,344
2017-05-02T11:22:55.742Z,372
2017-05-02T11:24:08.057Z,388
2017-05-02T11:25:20.400Z,396
2017-05-02T11:26:32.706Z,400
2017-05-02T11:27:45.656Z,412
2017-05-02T11:28:57.989Z,392
2017-05-02T11:30:10.783Z,396
2017-05-02T11:31:23.091Z,392
2017-05-02T11:32:34.916Z,400
2017-05-02T11:33:47.716Z,404
2017-05-02T11:35:00.517Z,440
2017-05-02T11:36:12.349Z,468
2017-05-02T11:37:25.135Z,612
2017-05-02T11:38:37.932Z,640
2017-05-02T11:39:50.253Z,588
2017-05-02T11:41:02.563Z,492
2017-05-02T11:42:14.875Z,408
2017-05-02T11:43:27.667Z,352
2017-05-02T11:44:40.463Z,320
2017-05-02T11:45:53.269Z,324
2017-05-02T11:47:06.065Z,328
2017-05-02T11:48:18.874Z,344
2017-05-02T11:49:31.484Z,340
2017-05-02T11:50:44.280Z,368
2017-05-02T11:51:56.115Z,372
2017-05-02T11:53:08.912Z,380
2017-05-02T11:54:21.236Z,396
2017-05-02T11:55:34.046Z,432
2017-05-02T11:56:46.871Z,492
2017-05-02T11:57:59.669Z,532
2017-05-02T11:59:12.472Z,620
2017-05-02T12:00:25.090Z,552
2017-05-02T12:01:37.407Z,476
2017-05-02T12:02:50.200Z,460
2017-05-02T12:04:02.518Z,480
2017-05-02T12:05:15.315Z,520
2017-05-02T12:06:28.139Z,600
2017-05-02T12:07:41.100Z,604
2017-05-02T12:08:53.905Z,620
2017-05-02T12:10:06.703Z,628
2017-05-02T12:11:19.502Z,804
2017-05-02T12:12:32.066Z,1096
2017-05-02T12:13:44.866Z,928
2017-05-02T12:14:57.678Z,972
2017-05-02T12:16:10.479Z,944
2017-05-02T12:17:22.793Z,1008
2017-05-02T12:18:35.114Z,772
2017-05-02T12:19:47.906Z,748
2017-05-02T12:21:00.715Z,764
2017-05-02T12:22:13.031Z,792
2017-05-02T12:23:25.827Z,772
2017-05-02T12:24:37.662Z,796
2017-05-02T12:25:50.456Z,800
2017-05-02T12:27:02.289Z,916
2017-05-02T12:28:15.083Z,916
2017-05-02T12:29:27.873Z,988
2017-05-02T12:30:40.673Z,1072
2017-05-02T12:31:53.470Z,928
2017-05-02T12:33:06.266Z,740
2017-05-02T12:34:18.091Z,692
2017-05-02T12:35:30.879Z,684
2017-05-02T12:36:43.678Z,676
2017-05-02T12:37:56.480Z,676
2017-05-02T12:39:09.271Z,740
2017-05-02T12:40:21.583Z,800
2017-05-02T12:41:33.905Z,860
2017-05-02T12:42:46.710Z,744
2017-05-02T12:43:59.511Z,724
2017-05-02T12:45:12.304Z,792
2017-05-02T12:46:25.100Z,820
2017-05-02T12:47:37.416Z,964
2017-05-02T12:48:50.208Z,936
2017-05-02T12:50:03.310Z,956
2017-05-02T12:51:15.132Z,856
2017-05-02T12:52:27.443Z,716
2017-05-02T12:53:40.235Z,660
2017-05-02T12:56:52.502Z,644
2017-05-02T12:58:04.818Z,636
2017-05-02T12:59:17.614Z,628
2017-05-02T13:00:30.416Z,624
2017-05-02T13:01:42.723Z,612
2017-05-02T13:02:55.764Z,700
2017-05-02T13:04:08.078Z,676
2017-05-02T13:05:20.394Z,716
2017-05-02T13:06:33.190Z,984
2017-05-02T13:07:45.548Z,1256
2017-05-02T13:08:58.594Z,1448
2017-05-02T13:10:10.917Z,1336
2017-05-02T13:11:23.234Z,1916
2017-05-02T13:12:36.033Z,1804
2017-05-02T13:13:48.352Z,724
2017-05-02T13:15:01.161Z,764
2017-05-02T13:16:13.957Z,800
2017-05-02T13:17:26.269Z,552
2017-05-02T13:18:39.061Z,520
2017-05-02T13:20:20.009Z,1952
2017-05-02T13:21:32.321Z,944
2017-05-02T13:22:45.113Z,1252
2017-05-02T13:23:57.913Z,996
2017-05-02T13:25:10.225Z,1332
2017-05-02T13:26:23.023Z,1220
2017-05-02T13:27:35.820Z,1108
2017-05-02T13:28:48.139Z,1860
2017-05-02T13:30:00.947Z,1936
2017-05-02T13:31:13.743Z,2024
2017-05-02T13:32:26.066Z,1972
2017-05-02T13:33:38.861Z,1984
2017-05-02T13:34:51.656Z,1076
2017-05-02T13:36:04.460Z,1604
2017-05-02T13:37:16.774Z,944
2017-05-02T13:38:29.082Z,1160
2017-05-02T13:39:41.871Z,1180
2017-05-02T13:40:54.663Z,1744
2017-05-02T13:42:07.463Z,1956
2017-05-02T13:43:19.783Z,1900
2017-05-02T13:44:31.913Z,1900
2017-05-02T13:45:44.723Z,1812
2017-05-02T13:46:57.532Z,1608
2017-05-02T13:48:10.336Z,1844
2017-05-02T13:49:22.175Z,1628
2017-05-02T13:50:34.788Z,880
2017-05-02T13:51:47.107Z,1632
2017-05-02T13:52:59.903Z,1728
2017-05-02T13:54:12.698Z,1444
2017-05-02T13:55:25.782Z,1596
2017-05-02T13:56:38.100Z,1304
2017-05-02T13:57:50.898Z,1296
2017-05-02T13:59:03.693Z,1960
2017-05-02T14:00:16.487Z,1436
2017-05-02T14:01:29.288Z,1268
2017-05-02T14:02:42.090Z,1144
2017-05-02T14:03:55.102Z,1344
2017-05-02T14:05:07.891Z,1184
2017-05-02T14:06:20.692Z,1256
2017-05-02T14:07:47.569Z,1220
2017-05-02T14:09:00.395Z,1172
2017-05-02T14:10:26.781Z,1340
2017-05-02T14:11:39.574Z,1104
2017-05-02T14:12:51.409Z,844
2017-05-02T14:14:04.217Z,896
2017-05-02T14:15:17.013Z,944
2017-05-02T14:16:29.321Z,864
2017-05-02T14:17:42.123Z,860
2017-05-02T14:18:54.442Z,1224
2017-05-02T14:20:07.249Z,1412
2017-05-02T14:21:20.044Z,956
2017-05-02T14:22:32.839Z,1300
2017-05-02T14:23:45.635Z,1192
2017-05-02T14:24:57.464Z,2020
2017-05-02T14:26:10.255Z,1836
2017-05-02T14:27:23.624Z,1884
2017-05-02T14:28:36.418Z,1904
2017-05-02T14:29:49.220Z,1920
2017-05-02T14:31:02.015Z,1932
2017-05-02T14:32:14.810Z,1912
2017-05-02T14:33:27.612Z,2000
2017-05-02T14:34:40.424Z,1224
2017-05-02T14:35:53.474Z,1964
2017-05-02T14:37:05.793Z,1984
2017-05-02T14:38:18.109Z,1816
2017-05-02T14:39:30.435Z,1784
2017-05-02T14:40:43.524Z,1668
2017-05-02T14:41:56.315Z,1648
2017-05-02T14:43:09.104Z,1700
2017-05-02T14:44:20.941Z,1604
2017-05-02T14:45:33.739Z,1000
2017-05-02T14:46:46.052Z,1544
2017-05-02T14:47:58.370Z,1640
2017-05-02T14:49:11.425Z,1392
2017-05-02T14:50:24.234Z,1520
2017-05-02T14:51:37.035Z,1416
2017-05-02T14:52:49.836Z,1160
2017-05-02T14:54:02.640Z,708
2017-05-02T14:55:14.472Z,1312
2017-05-02T14:56:27.275Z,1000
2017-05-02T14:57:40.072Z,588
2017-05-02T14:58:52.864Z,504
2017-05-02T15:00:05.665Z,448
2017-05-02T15:01:17.983Z,464
2017-05-02T15:02:30.775Z,1252
2017-05-02T15:03:43.578Z,1296
2017-05-02T15:04:56.386Z,1256
2017-05-02T15:06:09.224Z,1232
2017-05-02T15:07:22.018Z,1176
2017-05-02T15:08:34.818Z,1160
2017-05-02T15:09:47.124Z,1212
2017-05-02T15:11:13.985Z,1236
2017-05-02T15:12:40.848Z,1220
2017-05-02T15:13:53.638Z,1232
2017-05-02T15:15:06.673Z,1220
2017-05-02T15:16:19.458Z,1168
2017-05-02T15:17:32.255Z,1124
2017-05-02T15:18:44.563Z,1108
2017-05-02T15:19:57.352Z,1100
2017-05-02T15:21:10.155Z,1080
2017-05-02T15:22:22.941Z,1084
2017-05-02T15:23:34.762Z,1076
2017-05-02T15:24:47.543Z,1044
2017-05-02T15:26:00.011Z,1056
2017-05-02T15:27:12.328Z,1048
2017-05-02T15:28:25.118Z,1044
2017-05-02T15:29:37.907Z,1012
2017-05-02T15:30:50.691Z,984
2017-05-02T15:32:03.727Z,964
2017-05-02T15:33:16.512Z,948
2017-05-02T15:34:28.338Z,952
2017-05-02T15:35:41.125Z,960
2017-05-02T15:36:52.949Z,976
2017-05-02T15:38:05.747Z,948
2017-05-02T15:39:18.059Z,872
2017-05-02T15:40:30.852Z,496
2017-05-02T15:41:43.645Z,608
2017-05-02T15:42:56.436Z,676
2017-05-02T15:44:08.262Z,716
2017-05-02T15:45:21.056Z,816
2017-05-02T15:46:33.841Z,820
2017-05-02T15:47:46.150Z,784
2017-05-02T15:48:58.939Z,768
2017-05-02T15:50:11.728Z,744
2017-05-02T15:51:24.514Z,732
2017-05-02T15:52:37.317Z,728
2017-05-02T15:53:50.368Z,720
2017-05-02T15:55:03.179Z,732
2017-05-02T15:56:15.972Z,760
2017-05-02T15:57:28.768Z,800
2017-05-02T15:58:41.560Z,820
2017-05-02T15:59:54.354Z,836
2017-05-02T16:01:06.669Z,732
2017-05-02T16:02:18.982Z,744
2017-05-02T16:03:31.788Z,852
2017-05-02T16:04:44.578Z,732
2017-05-02T16:05:56.886Z,668
2017-05-02T16:07:09.683Z,620
2017-05-02T16:08:21.995Z,724
2017-05-02T16:09:34.311Z,784
2017-05-02T16:10:47.108Z,716
2017-05-02T16:11:59.416Z,668
2017-05-02T16:13:12.226Z,648
2017-05-02T16:14:24.553Z,824
2017-05-02T16:15:37.115Z,644
2017-05-02T16:16:49.905Z,600
2017-05-02T16:18:02.705Z,576
2017-05-02T16:19:15.507Z,664
2017-05-02T16:20:27.817Z,636
2017-05-02T16:21:40.613Z,664
2017-05-02T16:22:53.410Z,808
2017-05-02T16:24:06.216Z,704
2017-05-02T16:25:19.017Z,828
2017-05-02T16:26:31.817Z,868
2017-05-02T16:27:44.134Z,864
2017-05-02T16:28:56.451Z,888
2017-05-02T16:30:09.249Z,816
2017-05-02T16:31:22.051Z,944
2017-05-02T16:32:34.838Z,956
2017-05-02T16:33:46.678Z,944
2017-05-02T16:34:59.481Z,924
2017-05-02T16:36:11.315Z,936
2017-05-02T16:37:24.109Z,916
2017-05-02T16:38:36.907Z,872
2017-05-02T16:39:49.711Z,808
2017-05-02T16:41:02.506Z,784
2017-05-02T16:42:15.552Z,796
2017-05-02T16:43:28.415Z,816
2017-05-02T16:44:41.222Z,796
2017-05-02T16:45:54.019Z,768
2017-05-02T16:47:07.385Z,804
2017-05-02T16:48:20.185Z,816
2017-05-02T16:49:32.984Z,716
2017-05-02T16:50:45.777Z,672
2017-05-02T16:51:58.571Z,628
2017-05-02T16:53:11.618Z,680
2017-05-02T16:54:23.938Z,592
2017-05-02T16:55:36.256Z,564
2017-05-02T16:56:49.053Z,544
2017-05-02T16:58:01.844Z,576
2017-05-02T16:59:14.160Z,580
2017-05-02T17:00:41.030Z,556
2017-05-02T17:02:07.908Z,652
2017-05-02T17:03:20.219Z,596
2017-05-02T17:04:47.087Z,640
2017-05-02T17:05:59.888Z,596